Time;durP1;ratioP1;P1;durP2;ratioP2;P2;SDS_P1;SDS_P2;PMS_P1;PMS_P2;Temp;Humidity;BMP_temperature;BMP_pressure;BME280_temperature;BME280_humidity;BME280_pressure;Samples;Min_cycle;Max_cycle;Signal;HPM_P1;HPM_P2
2023/02/14 00:00:21;;;;;;;31.55;11.93;;;;;;;;;;4916560;29;20483;-75
2023/02/14 00:02:48;;;;;;;27.67;11.85;;;;;;;;;;4916483;29;20032;-75
2023/02/14 00:05:13;;;;;;;30.00;12.18;;;;;;;;;;4917291;29;20075;-75
2023/02/14 00:07:39;;;;;;;28.55;12.55;;;;;;;;;;4916822;29;20123;-75
2023/02/14 00:10:05;;;;;;;25.75;11.50;;;;;;;;;;4915613;29;20027;-76
2023/02/14 00:12:30;;;;;;;26.15;11.40;;;;;;;;;;4915539;29;20036;-75
2023/02/14 00:17:39;;;;;;;48.33;18.17;;;;;;;;;;4916722;29;20179;-74
2023/02/14 00:20:07;;;;;;;38.63;14.85;;;;;;;;;;4912901;29;20115;-75
2023/02/14 00:22:33;;;;;;;32.00;13.25;;;;;;;;;;4915406;29;20032;-76
2023/02/14 00:24:58;;;;;;;31.85;14.13;;;;;;;;;;4928018;29;20031;-76
2023/02/14 00:27:24;;;;;;;28.75;11.98;;;;;;;;;;4920210;29;20066;-75
2023/02/14 00:29:49;;;;;;;26.85;11.35;;;;;;;;;;4920978;29;20418;-75
2023/02/14 00:32:15;;;;;;;30.10;11.57;;;;;;;;;;4920948;29;20092;-75
2023/02/14 00:34:40;;;;;;;25.05;10.70;;;;;;;;;;4917200;29;20562;-76
2023/02/14 00:37:05;;;;;;;29.50;11.38;;;;;;;;;;4916283;29;20040;-76
2023/02/14 00:39:31;;;;;;;24.23;10.52;;;;;;;;;;4915962;29;20032;-75
2023/02/14 00:41:56;;;;;;;26.20;11.02;;;;;;;;;;4916387;29;20023;-76
2023/02/14 00:44:22;;;;;;;20.83;9.88;;;;;;;;;;4915892;29;20031;-76
2023/02/14 00:46:47;;;;;;;21.52;9.45;;;;;;;;;;4915558;29;20447;-75
2023/02/14 00:49:12;;;;;;;25.67;10.80;;;;;;;;;;4912417;29;20476;-75
2023/02/14 00:51:41;;;;;;;22.10;9.25;;;;;;;;;;4916548;29;20028;-76
2023/02/14 00:54:09;;;;;;;26.88;11.80;;;;;;;;;;4916001;29;20487;-75
2023/02/14 00:56:37;;;;;;;25.73;10.75;;;;;;;;;;4916428;29;20044;-76
2023/02/14 00:59:03;;;;;;;25.38;10.48;;;;;;;;;;4919913;29;20028;-76
2023/02/14 01:01:30;;;;;;;26.38;11.05;;;;;;;;;;4919876;29;20496;-76
2023/02/14 01:03:58;;;;;;;25.88;12.35;;;;;;;;;;4915921;29;20028;-75
2023/02/14 01:06:24;;;;;;;28.15;12.27;;;;;;;;;;4915781;29;20043;-75
2023/02/14 01:08:49;;;;;;;28.75;12.95;;;;;;;;;;4915917;29;20024;-76
2023/02/14 01:11:20;;;;;;;25.70;10.77;;;;;;;;;;4914929;29;20470;-75
2023/02/14 01:13:46;;;;;;;29.08;12.50;;;;;;;;;;4915981;29;20039;-75
2023/02/14 01:16:17;;;;;;;25.00;11.80;;;;;;;;;;4914805;29;20039;-75
2023/02/14 01:18:43;;;;;;;28.38;11.10;;;;;;;;;;4912351;29;20032;-75
2023/02/14 01:21:33;;;;;;;25.98;11.13;;;;;;;;;;4915822;29;20026;-75
2023/02/14 01:24:02;;;;;;;25.00;11.43;;;;;;;;;;4914293;29;20039;-75
2023/02/14 01:26:28;;;;;;;38.08;13.50;;;;;;;;;;4915227;29;20032;-75
2023/02/14 01:28:54;;;;;;;30.33;13.10;;;;;;;;;;4915797;29;20116;-74
2023/02/14 01:31:23;;;;;;;28.27;12.30;;;;;;;;;;4915427;29;20032;-75
2023/02/14 01:33:49;;;;;;;29.95;12.98;;;;;;;;;;4916637;29;20491;-75
2023/02/14 01:36:23;;;;;;;29.17;12.88;;;;;;;;;;4913944;29;20086;-75
2023/02/14 01:38:54;;;;;;;29.65;12.43;;;;;;;;;;4915470;29;20086;-74
2023/02/14 01:41:20;;;;;;;27.98;12.25;;;;;;;;;;4915627;29;20036;-75
2023/02/14 01:44:00;;;;;;;27.15;11.93;;;;;;;;;;4912791;29;20035;-75
2023/02/14 01:46:29;;;;;;;25.00;11.07;;;;;;;;;;4913180;29;20087;-75
2023/02/14 01:49:01;;;;;;;29.45;12.55;;;;;;;;;;4915306;29;20055;-75
2023/02/14 01:51:31;;;;;;;30.63;13.35;;;;;;;;;;4912356;29;20029;-75
2023/02/14 01:53:57;;;;;;;32.15;12.18;;;;;;;;;;4914698;29;20127;-76
2023/02/14 01:56:33;;;;;;;29.20;12.40;;;;;;;;;;4918021;29;20138;-76
2023/02/14 01:59:01;;;;;;;28.88;12.95;;;;;;;;;;4918245;29;20036;-76
2023/02/14 02:01:28;;;;;;;31.10;12.45;;;;;;;;;;4912023;29;20551;-76
2023/02/14 02:03:56;;;;;;;27.08;11.68;;;;;;;;;;4907674;29;20041;-76
2023/02/14 02:06:28;;;;;;;28.38;12.05;;;;;;;;;;4914276;29;20039;-76
2023/02/14 02:08:59;;;;;;;35.22;13.88;;;;;;;;;;4914467;29;20032;-76
2023/02/14 02:11:26;;;;;;;27.60;12.10;;;;;;;;;;4912082;29;20032;-76
2023/02/14 02:13:51;;;;;;;33.42;14.07;;;;;;;;;;4913473;29;20122;-76
2023/02/14 02:16:32;;;;;;;31.85;13.40;;;;;;;;;;4913553;29;20456;-76
2023/02/14 02:19:13;;;;;;;31.42;12.68;;;;;;;;;;4914737;29;20023;-75
2023/02/14 02:21:54;;;;;;;34.53;13.10;;;;;;;;;;4914189;29;20052;-76
2023/02/14 02:24:41;;;;;;;30.98;12.48;;;;;;;;;;4914690;29;20063;-76
2023/02/14 02:27:18;;;;;;;29.02;11.90;;;;;;;;;;4914133;29;20071;-76
2023/02/14 02:30:04;;;;;;;32.22;12.07;;;;;;;;;;4913859;29;20028;-76
2023/02/14 02:32:38;;;;;;;29.67;11.95;;;;;;;;;;4913666;29;20028;-76
2023/02/14 02:35:16;;;;;;;35.92;14.07;;;;;;;;;;4911863;29;20040;-75
2023/02/14 02:38:06;;;;;;;35.38;15.20;;;;;;;;;;4913267;29;20070;-74
2023/02/14 02:40:32;;;;;;;33.70;12.85;;;;;;;;;;4912122;29;20072;-76
2023/02/14 02:42:57;;;;;;;30.30;13.50;;;;;;;;;;4912450;29;20032;-74
2023/02/14 02:48:48;;;;;;;37.55;13.88;;;;;;;;;;4913610;29;20596;-75
2023/02/14 02:54:45;;;;;;;34.45;13.27;;;;;;;;;;4926306;28;19918;-76
2023/02/14 02:57:37;;;;;;;34.58;14.43;;;;;;;;;;4912105;29;20123;-76
2023/02/14 03:00:06;;;;;;;31.92;14.48;;;;;;;;;;4915841;29;20027;-76
2023/02/14 03:05:26;;;;;;;30.52;12.70;;;;;;;;;;4915353;29;20074;-76
2023/02/14 03:07:51;;;;;;;33.30;13.55;;;;;;;;;;4915324;29;20036;-75
2023/02/14 03:10:26;;;;;;;31.85;14.23;;;;;;;;;;4913465;29;20204;-76
2023/02/14 03:13:28;;;;;;;35.92;14.27;;;;;;;;;;4912955;29;20036;-75
2023/02/14 03:16:18;;;;;;;34.40;14.02;;;;;;;;;;4915512;29;20032;-75
2023/02/14 03:19:14;;;;;;;33.15;14.38;;;;;;;;;;4913092;29;20107;-75
2023/02/14 03:21:54;;;;;;;37.53;14.00;;;;;;;;;;4919328;29;20420;-75
2023/02/14 03:24:44;;;;;;;39.15;15.68;;;;;;;;;;4911930;29;20036;-75
2023/02/14 03:27:22;;;;;;;37.03;14.63;;;;;;;;;;4916955;29;20038;-75
2023/02/14 03:29:57;;;;;;;30.27;13.98;;;;;;;;;;4917584;29;20055;-76
2023/02/14 03:32:28;;;;;;;34.25;13.57;;;;;;;;;;4916788;29;20090;-75
2023/02/14 03:35:23;;;;;;;34.78;13.70;;;;;;;;;;4916232;29;20055;-75
2023/02/14 03:38:16;;;;;;;32.47;12.55;;;;;;;;;;4919246;29;20032;-75
2023/02/14 03:40:53;;;;;;;31.27;13.95;;;;;;;;;;4916307;29;20122;-75
2023/02/14 03:43:27;;;;;;;31.80;14.55;;;;;;;;;;4916345;29;20036;-76
2023/02/14 03:46:07;;;;;;;37.03;15.75;;;;;;;;;;4916253;29;20046;-75
2023/02/14 03:48:35;;;;;;;34.00;13.52;;;;;;;;;;4916989;29;20458;-76
2023/02/14 03:51:01;;;;;;;30.50;13.48;;;;;;;;;;4917407;29;20040;-76
2023/02/14 03:53:32;;;;;;;30.23;12.85;;;;;;;;;;4917292;29;20043;-76
2023/02/14 03:56:11;;;;;;;34.88;13.75;;;;;;;;;;4915644;29;20122;-76
2023/02/14 03:58:39;;;;;;;31.13;12.85;;;;;;;;;;4916945;29;20361;-75
2023/02/14 04:01:12;;;;;;;34.57;13.97;;;;;;;;;;4916602;29;20024;-75
2023/02/14 04:03:41;;;;;;;30.38;13.90;;;;;;;;;;4917876;29;20715;-76
2023/02/14 04:06:07;;;;;;;30.25;12.95;;;;;;;;;;4917323;29;20607;-76
2023/02/14 04:08:33;;;;;;;32.35;13.10;;;;;;;;;;4915881;29;20115;-76
2023/02/14 04:11:00;;;;;;;30.15;12.05;;;;;;;;;;4917327;29;20040;-76
2023/02/14 04:13:26;;;;;;;33.03;13.48;;;;;;;;;;4917287;29;20031;-76
2023/02/14 04:15:51;;;;;;;30.67;12.40;;;;;;;;;;4915742;29;20028;-76
2023/02/14 04:21:01;;;;;;;34.22;12.50;;;;;;;;;;4915774;29;20551;-75
2023/02/14 04:23:27;;;;;;;31.00;12.80;;;;;;;;;;4916567;29;20047;-76
2023/02/14 04:25:52;;;;;;;31.70;13.07;;;;;;;;;;4916514;29;20040;-75
2023/02/14 04:28:18;;;;;;;31.83;12.32;;;;;;;;;;4919936;29;20311;-76
2023/02/14 04:30:43;;;;;;;31.30;13.55;;;;;;;;;;4916606;29;20067;-75
2023/02/14 04:33:09;;;;;;;27.77;13.50;;;;;;;;;;4921633;29;20035;-75
2023/02/14 04:35:35;;;;;;;30.73;13.30;;;;;;;;;;4916949;29;20032;-75
2023/02/14 04:38:01;;;;;;;30.00;12.52;;;;;;;;;;4916205;29;20538;-75
2023/02/14 04:40:29;;;;;;;32.17;13.15;;;;;;;;;;4915893;29;20432;-75
2023/02/14 04:42:57;;;;;;;31.60;13.52;;;;;;;;;;4916477;29;20024;-75
2023/02/14 04:45:23;;;;;;;32.08;13.00;;;;;;;;;;4916630;29;20056;-75
2023/02/14 04:47:48;;;;;;;29.08;13.43;;;;;;;;;;4914975;29;20059;-76
2023/02/14 04:50:14;;;;;;;34.03;13.95;;;;;;;;;;4916267;29;20084;-76
2023/02/14 04:52:40;;;;;;;29.90;13.73;;;;;;;;;;4916395;29;20024;-75
2023/02/14 04:55:06;;;;;;;30.40;13.48;;;;;;;;;;4915713;29;20023;-76
2023/02/14 04:57:32;;;;;;;30.10;13.60;;;;;;;;;;4915191;29;20484;-75
2023/02/14 04:59:57;;;;;;;31.58;13.23;;;;;;;;;;4916548;29;20039;-75
2023/02/14 05:02:22;;;;;;;30.85;13.60;;;;;;;;;;4919646;29;20495;-75
2023/02/14 05:04:48;;;;;;;35.70;16.30;;;;;;;;;;4916349;29;20028;-75
2023/02/14 05:07:16;;;;;;;39.65;16.60;;;;;;;;;;4916454;29;20311;-76
2023/02/14 05:09:41;;;;;;;46.38;19.17;;;;;;;;;;4915861;29;20122;-75
2023/02/14 05:12:06;;;;;;;42.20;18.17;;;;;;;;;;4915302;29;20119;-75
2023/02/14 05:14:32;;;;;;;36.22;16.15;;;;;;;;;;4914519;29;20095;-75
2023/02/14 05:16:59;;;;;;;35.45;14.05;;;;;;;;;;4916135;29;20032;-75
2023/02/14 05:19:25;;;;;;;33.63;14.70;;;;;;;;;;4915891;29;20116;-75
2023/02/14 05:21:51;;;;;;;34.80;14.73;;;;;;;;;;4921314;28;20057;-76
2023/02/14 05:24:16;;;;;;;37.83;15.13;;;;;;;;;;4929132;29;20495;-74
2023/02/14 05:26:42;;;;;;;36.42;16.65;;;;;;;;;;4919258;29;20062;-75
2023/02/14 05:29:07;;;;;;;42.08;17.55;;;;;;;;;;4929114;29;20039;-76
2023/02/14 05:31:35;;;;;;;50.28;19.33;;;;;;;;;;4923377;29;20056;-74
2023/02/14 05:34:00;;;;;;;51.42;21.98;;;;;;;;;;4926447;29;20064;-76
2023/02/14 05:36:26;;;;;;;49.05;21.48;;;;;;;;;;4914803;29;20024;-74
2023/02/14 05:38:51;;;;;;;59.17;27.15;;;;;;;;;;4921276;29;20028;-75
2023/02/14 05:41:16;;;;;;;52.72;23.23;;;;;;;;;;4916288;29;20024;-75
2023/02/14 05:43:42;;;;;;;45.15;19.60;;;;;;;;;;4914130;29;20249;-76
2023/02/14 05:46:07;;;;;;;45.33;19.30;;;;;;;;;;4915578;29;20524;-74
2023/02/14 05:48:33;;;;;;;39.30;16.45;;;;;;;;;;4912598;29;20039;-76
2023/02/14 05:51:04;;;;;;;45.20;18.63;;;;;;;;;;4914133;29;20083;-76
2023/02/14 05:53:32;;;;;;;39.03;17.27;;;;;;;;;;4915342;29;20498;-74
2023/02/14 05:55:58;;;;;;;42.13;16.60;;;;;;;;;;4908374;29;20028;-75
2023/02/14 05:58:23;;;;;;;33.67;14.48;;;;;;;;;;4915571;29;20387;-75
2023/02/14 06:00:49;;;;;;;38.03;14.57;;;;;;;;;;4916067;29;20028;-75
2023/02/14 06:03:16;;;;;;;29.13;14.65;;;;;;;;;;4917239;29;20487;-75
2023/02/14 06:05:42;;;;;;;34.60;15.27;;;;;;;;;;4915436;29;20499;-75
2023/02/14 06:08:10;;;;;;;31.80;14.73;;;;;;;;;;4915152;29;20035;-75
2023/02/14 06:10:38;;;;;;;33.08;14.88;;;;;;;;;;4916482;29;20420;-75
2023/02/14 06:13:11;;;;;;;36.67;15.23;;;;;;;;;;4915879;29;20027;-77
2023/02/14 06:15:37;;;;;;;31.65;14.40;;;;;;;;;;4918513;29;20047;-75
2023/02/14 06:18:04;;;;;;;37.90;14.95;;;;;;;;;;4917391;29;20054;-74
2023/02/14 06:20:29;;;;;;;38.30;14.70;;;;;;;;;;4918330;29;20028;-77
2023/02/14 06:22:58;;;;;;;33.00;14.20;;;;;;;;;;4925349;29;20072;-75
2023/02/14 06:25:24;;;;;;;34.33;15.10;;;;;;;;;;4914956;29;20038;-74
2023/02/14 06:27:54;;;;;;;35.30;14.43;;;;;;;;;;4914202;29;20142;-75
2023/02/14 06:30:20;;;;;;;33.90;15.27;;;;;;;;;;4914764;29;20031;-76
2023/02/14 06:32:46;;;;;;;36.35;16.88;;;;;;;;;;4913122;29;20040;-76
2023/02/14 06:35:12;;;;;;;31.88;15.35;;;;;;;;;;4914055;29;20107;-75
2023/02/14 06:37:44;;;;;;;33.75;15.23;;;;;;;;;;4913125;29;20389;-76
2023/02/14 06:40:13;;;;;;;36.65;16.35;;;;;;;;;;4914112;29;20032;-75
2023/02/14 06:42:38;;;;;;;38.25;16.83;;;;;;;;;;4913610;29;20475;-75
2023/02/14 06:45:07;;;;;;;42.28;16.80;;;;;;;;;;4914339;29;20047;-75
2023/02/14 06:47:33;;;;;;;42.65;18.60;;;;;;;;;;4911718;29;20491;-75
2023/02/14 06:50:03;;;;;;;39.83;17.15;;;;;;;;;;4912278;29;20035;-76
2023/02/14 06:52:29;;;;;;;35.70;16.77;;;;;;;;;;4911760;29;20047;-75
2023/02/14 06:54:54;;;;;;;47.25;19.23;;;;;;;;;;4913786;29;20024;-76
2023/02/14 06:57:19;;;;;;;40.15;17.85;;;;;;;;;;4913123;29;20188;-76
2023/02/14 06:59:50;;;;;;;39.22;17.15;;;;;;;;;;4913887;29;20024;-76
2023/02/14 07:02:17;;;;;;;44.22;17.70;;;;;;;;;;4910611;29;20392;-76
2023/02/14 07:04:43;;;;;;;38.38;17.00;;;;;;;;;;4913798;29;20504;-76
2023/02/14 07:07:08;;;;;;;36.83;15.95;;;;;;;;;;4912935;29;20062;-75
2023/02/14 07:09:36;;;;;;;38.50;16.95;;;;;;;;;;4914910;29;20020;-76
2023/02/14 07:12:01;;;;;;;39.30;17.52;;;;;;;;;;4913453;29;20047;-76
2023/02/14 07:14:29;;;;;;;34.08;16.63;;;;;;;;;;4914070;29;20020;-75
2023/02/14 07:16:55;;;;;;;39.50;17.40;;;;;;;;;;4913482;29;20028;-77
2023/02/14 07:19:20;;;;;;;41.67;19.45;;;;;;;;;;4914086;29;20655;-76
2023/02/14 07:21:45;;;;;;;38.60;16.50;;;;;;;;;;4914203;29;20034;-76
2023/02/14 07:24:11;;;;;;;39.75;18.27;;;;;;;;;;4914572;29;20027;-76
2023/02/14 07:26:38;;;;;;;37.05;17.08;;;;;;;;;;4913032;29;20547;-76
2023/02/14 07:29:04;;;;;;;37.88;16.65;;;;;;;;;;4912478;29;20040;-74
2023/02/14 07:31:29;;;;;;;40.83;17.85;;;;;;;;;;4913606;29;20083;-76
2023/02/14 07:33:59;;;;;;;38.42;17.90;;;;;;;;;;4913691;29;20035;-75
2023/02/14 07:36:25;;;;;;;35.63;16.60;;;;;;;;;;4913648;29;20036;-76
2023/02/14 07:38:51;;;;;;;36.17;17.55;;;;;;;;;;4913753;29;20028;-76
2023/02/14 07:41:18;;;;;;;41.03;17.08;;;;;;;;;;4911868;29;20385;-74
2023/02/14 07:43:44;;;;;;;43.47;18.58;;;;;;;;;;4917200;29;20067;-76
2023/02/14 07:46:09;;;;;;;41.92;19.42;;;;;;;;;;4913748;29;20067;-76
2023/02/14 07:48:38;;;;;;;42.85;19.38;;;;;;;;;;4913832;29;20115;-74
2023/02/14 07:51:06;;;;;;;41.78;19.33;;;;;;;;;;4909878;29;20032;-75
2023/02/14 07:53:31;;;;;;;42.70;19.23;;;;;;;;;;4913578;29;20035;-73
2023/02/14 07:55:59;;;;;;;42.33;18.70;;;;;;;;;;4914540;29;20210;-74
2023/02/14 07:58:24;;;;;;;44.45;19.63;;;;;;;;;;4913951;29;20040;-74
2023/02/14 08:00:50;;;;;;;45.85;20.60;;;;;;;;;;4917986;29;20031;-75
2023/02/14 08:03:18;;;;;;;52.83;24.27;;;;;;;;;;4913773;29;20028;-75
2023/02/14 08:05:43;;;;;;;53.58;23.45;;;;;;;;;;4908875;29;20535;-75
2023/02/14 08:08:11;;;;;;;58.30;25.65;;;;;;;;;;4909349;29;20141;-75
2023/02/14 08:10:36;;;;;;;61.08;24.27;;;;;;;;;;4911241;29;20131;-75
2023/02/14 08:13:02;;;;;;;61.88;28.00;;;;;;;;;;4924133;29;20517;-73
2023/02/14 08:18:19;;;;;;;49.08;23.05;;;;;;;;;;4914468;29;20055;-75
2023/02/14 08:20:48;;;;;;;45.88;22.52;;;;;;;;;;4914337;29;20043;-75
2023/02/14 08:23:16;;;;;;;43.65;22.13;;;;;;;;;;4916249;29;20036;-75
2023/02/14 08:25:42;;;;;;;51.42;22.63;;;;;;;;;;4910489;29;20399;-75
2023/02/14 08:28:10;;;;;;;45.85;22.52;;;;;;;;;;4912567;29;20038;-76
2023/02/14 08:30:39;;;;;;;50.22;22.10;;;;;;;;;;4915285;29;20032;-76
2023/02/14 08:33:07;;;;;;;51.63;23.83;;;;;;;;;;4922791;29;20471;-75
2023/02/14 08:35:33;;;;;;;49.40;22.77;;;;;;;;;;4916064;29;20131;-76
2023/02/14 08:37:58;;;;;;;52.75;23.95;;;;;;;;;;4917008;29;20114;-76
2023/02/14 08:40:24;;;;;;;48.33;22.17;;;;;;;;;;4916446;29;20040;-75
2023/02/14 08:42:52;;;;;;;46.83;22.00;;;;;;;;;;4916451;29;20131;-78
2023/02/14 08:45:18;;;;;;;50.88;23.55;;;;;;;;;;4912250;29;20050;-75
2023/02/14 08:47:43;;;;;;;54.70;24.65;;;;;;;;;;4916540;29;20036;-76
2023/02/14 08:50:12;;;;;;;49.45;22.85;;;;;;;;;;4916459;29;20032;-76
2023/02/14 08:52:39;;;;;;;48.72;22.50;;;;;;;;;;4915566;29;20040;-76
2023/02/14 08:55:05;;;;;;;45.92;20.95;;;;;;;;;;4915165;29;20103;-76
2023/02/14 08:57:30;;;;;;;48.42;21.08;;;;;;;;;;4915781;29;20024;-75
2023/02/14 08:59:56;;;;;;;50.65;23.58;;;;;;;;;;4914548;29;20115;-76
2023/02/14 09:02:21;;;;;;;56.75;24.27;;;;;;;;;;4914288;29;20044;-76
2023/02/14 09:04:49;;;;;;;54.40;24.20;;;;;;;;;;4911137;29;20028;-78
2023/02/14 09:07:14;;;;;;;52.42;22.05;;;;;;;;;;4919279;29;20119;-75
2023/02/14 09:09:40;;;;;;;55.75;22.38;;;;;;;;;;4916118;29;20111;-75
2023/02/14 09:12:07;;;;;;;47.17;20.23;;;;;;;;;;4914886;29;20460;-76
2023/02/14 09:14:43;;;;;;;47.50;21.25;;;;;;;;;;4915090;29;20036;-75
2023/02/14 09:17:10;;;;;;;53.95;23.38;;;;;;;;;;4915317;29;20618;-75
2023/02/14 09:19:36;;;;;;;53.45;23.75;;;;;;;;;;4914224;29;20036;-76
2023/02/14 09:22:06;;;;;;;50.72;22.13;;;;;;;;;;4910734;29;20463;-75
2023/02/14 09:24:33;;;;;;;56.75;23.55;;;;;;;;;;4911255;29;20288;-76
2023/02/14 09:26:59;;;;;;;58.20;24.80;;;;;;;;;;4910966;29;20028;-75
2023/02/14 09:29:25;;;;;;;53.35;23.60;;;;;;;;;;4912253;29;20040;-76
2023/02/14 09:31:54;;;;;;;54.40;23.10;;;;;;;;;;4908560;29;20043;-75
2023/02/14 09:34:20;;;;;;;53.58;24.05;;;;;;;;;;4918436;29;20368;-78
2023/02/14 09:36:52;;;;;;;56.70;23.85;;;;;;;;;;4917904;29;20032;-78
2023/02/14 09:39:17;;;;;;;59.10;23.63;;;;;;;;;;4917113;29;20467;-78
2023/02/14 09:42:04;;;;;;;58.78;25.27;;;;;;;;;;4913518;29;20027;-78
2023/02/14 09:44:42;;;;;;;61.58;23.83;;;;;;;;;;4913743;29;20042;-78
2023/02/14 09:47:23;;;;;;;57.47;23.63;;;;;;;;;;4913571;29;20039;-77
2023/02/14 09:49:51;;;;;;;56.53;25.27;;;;;;;;;;4914012;29;20028;-79
2023/02/14 09:52:19;;;;;;;58.85;25.00;;;;;;;;;;4912027;29;20028;-76
2023/02/14 09:54:56;;;;;;;54.17;23.85;;;;;;;;;;4914529;29;20020;-76
2023/02/14 09:57:44;;;;;;;56.75;24.48;;;;;;;;;;4912971;29;20126;-76
2023/02/14 10:00:28;;;;;;;58.83;24.85;;;;;;;;;;4910481;29;20032;-76
2023/02/14 10:03:17;;;;;;;58.30;24.23;;;;;;;;;;4913665;29;20020;-77
2023/02/14 10:06:18;;;;;;;57.97;24.75;;;;;;;;;;4914736;29;20028;-78
2023/02/14 10:09:04;;;;;;;58.47;24.90;;;;;;;;;;4913099;29;20024;-78
2023/02/14 10:11:30;;;;;;;56.95;24.88;;;;;;;;;;4912885;29;20089;-76
2023/02/14 10:13:59;;;;;;;59.40;24.83;;;;;;;;;;4913019;29;20034;-77
2023/02/14 10:16:32;;;;;;;54.20;23.83;;;;;;;;;;4914392;29;20032;-77
2023/02/14 10:19:14;;;;;;;49.05;22.65;;;;;;;;;;4913340;29;20628;-77
2023/02/14 10:22:04;;;;;;;51.50;23.23;;;;;;;;;;4913404;29;20067;-77
2023/02/14 10:25:10;;;;;;;54.05;23.27;;;;;;;;;;4914181;29;20035;-77
2023/02/14 10:27:41;;;;;;;52.35;22.42;;;;;;;;;;4891196;29;20107;-77
2023/02/14 10:30:20;;;;;;;48.78;22.08;;;;;;;;;;4909624;29;20027;-76
2023/02/14 10:32:46;;;;;;;;;;;;;;;;;;4912416;29;20050;-77
2023/02/14 10:35:22;;;;;;;56.47;26.15;;;;;;;;;;4913436;29;20366;-77
2023/02/14 10:38:13;;;;;;;55.92;25.00;;;;;;;;;;4914609;29;20024;-77
2023/02/14 10:40:41;;;;;;;57.53;26.05;;;;;;;;;;4914358;29;20042;-77
2023/02/14 10:43:29;;;;;;;57.33;25.33;;;;;;;;;;4908890;29;20031;-77
2023/02/14 10:46:01;;;;;;;55.45;25.23;;;;;;;;;;4913835;29;20024;-77
2023/02/14 10:48:48;;;;;;;51.22;23.23;;;;;;;;;;4912877;29;20487;-77
2023/02/14 10:51:23;;;;;;;51.88;24.50;;;;;;;;;;4910846;29;20043;-77
2023/02/14 10:54:13;;;;;;;48.30;23.52;;;;;;;;;;4912203;29;20028;-78
2023/02/14 10:56:54;;;;;;;53.22;24.90;;;;;;;;;;4916732;29;20027;-78
2023/02/14 10:59:44;;;;;;;54.70;24.10;;;;;;;;;;4915658;29;20031;-80
2023/02/14 11:02:15;;;;;;;45.47;22.30;;;;;;;;;;4912403;29;20020;-77
2023/02/14 11:04:42;;;;;;;50.47;23.13;;;;;;;;;;4916896;29;20705;-78
2023/02/14 11:07:15;;;;;;;47.83;23.75;;;;;;;;;;4912282;29;20479;-78
2023/02/14 11:09:43;;;;;;;51.25;25.17;;;;;;;;;;4913747;29;20502;-77
2023/02/14 11:12:08;;;;;;;47.83;24.98;;;;;;;;;;4914805;29;20445;-78
2023/02/14 11:14:36;;;;;;;45.40;24.77;;;;;;;;;;4914103;29;20047;-78
2023/02/14 11:17:28;;;;;;;51.20;24.52;;;;;;;;;;4915859;29;20039;-77
2023/02/14 11:20:01;;;;;;;50.20;25.02;;;;;;;;;;4915581;29;20024;-77
2023/02/14 11:22:32;;;;;;;44.70;22.25;;;;;;;;;;4915444;29;20062;-78
2023/02/14 11:25:21;;;;;;;46.65;23.23;;;;;;;;;;4918181;29;20060;-77
2023/02/14 11:27:51;;;;;;;45.83;23.67;;;;;;;;;;4918398;29;20032;-77
2023/02/14 11:30:37;;;;;;;43.42;22.63;;;;;;;;;;4920170;29;20113;-78
2023/02/14 11:33:03;;;;;;;45.75;22.88;;;;;;;;;;4914770;29;20043;-77
2023/02/14 11:35:33;;;;;;;42.28;21.95;;;;;;;;;;4919364;29;20037;-77
2023/02/14 11:38:02;;;;;;;39.58;20.38;;;;;;;;;;4914989;29;20052;-77
2023/02/14 11:40:37;;;;;;;47.72;22.38;;;;;;;;;;4913604;29;20315;-77
2023/02/14 11:43:09;;;;;;;42.53;22.85;;;;;;;;;;4912016;29;20028;-78
2023/02/14 11:45:40;;;;;;;41.80;23.15;;;;;;;;;;4911559;29;20268;-77
2023/02/14 11:48:27;;;;;;;42.65;23.17;;;;;;;;;;4920623;29;20387;-77
2023/02/14 11:51:08;;;;;;;37.28;22.48;;;;;;;;;;4915724;29;20031;-77
2023/02/14 11:53:43;;;;;;;39.40;22.25;;;;;;;;;;4916108;29;20024;-77
2023/02/14 11:56:08;;;;;;;43.67;22.85;;;;;;;;;;4916565;29;20028;-77
2023/02/14 11:58:44;;;;;;;41.50;23.73;;;;;;;;;;4916772;29;20036;-77
2023/02/14 12:01:22;;;;;;;40.13;21.95;;;;;;;;;;4915615;29;20091;-77
2023/02/14 12:03:50;;;;;;;37.40;22.33;;;;;;;;;;4913036;29;20024;-77
2023/02/14 12:06:27;;;;;;;41.53;23.40;;;;;;;;;;4916443;29;20040;-78
2023/02/14 12:09:11;;;;;;;34.80;21.48;;;;;;;;;;4916376;29;20088;-77
2023/02/14 12:11:37;;;;;;;38.60;21.38;;;;;;;;;;4916158;29;20039;-77
2023/02/14 12:14:04;;;;;;;38.85;21.75;;;;;;;;;;4915916;29;20399;-78
2023/02/14 12:16:57;;;;;;;37.92;19.45;;;;;;;;;;4916114;29;20035;-77
2023/02/14 12:19:34;;;;;;;36.03;21.85;;;;;;;;;;4916410;29;20028;-77
2023/02/14 12:22:04;;;;;;;37.03;21.33;;;;;;;;;;4914776;29;20031;-78
2023/02/14 12:24:35;;;;;;;37.78;20.67;;;;;;;;;;4914089;29;20024;-76
2023/02/14 12:27:16;;;;;;;36.85;21.55;;;;;;;;;;4917071;29;20031;-77
2023/02/14 12:29:56;;;;;;;40.28;21.80;;;;;;;;;;4919470;29;20043;-77
2023/02/14 12:32:24;;;;;;;33.65;20.02;;;;;;;;;;4917339;29;20190;-77
2023/02/14 12:35:00;;;;;;;35.05;20.83;;;;;;;;;;4913976;29;20028;-75
2023/02/14 12:37:48;;;;;;;35.03;20.55;;;;;;;;;;4912423;29;20036;-78
2023/02/14 12:40:21;;;;;;;34.53;20.90;;;;;;;;;;4915993;29;20040;-78
2023/02/14 12:43:10;;;;;;;36.92;21.48;;;;;;;;;;4915646;29;20067;-77
2023/02/14 12:45:42;;;;;;;;;;;;;;;;;;4912170;29;20500;-77
2023/02/14 12:48:25;;;;;;;33.95;20.92;;;;;;;;;;4920624;29;19923;-77
2023/02/14 12:50:53;;;;;;;34.90;20.60;;;;;;;;;;4918001;29;20506;-77
2023/02/14 12:53:37;;;;;;;33.83;20.48;;;;;;;;;;4911189;29;20508;-77
2023/02/14 12:56:06;;;;;;;37.70;21.50;;;;;;;;;;4914165;29;20066;-77
2023/02/14 12:59:01;;;;;;;46.25;22.75;;;;;;;;;;4912550;29;20031;-77
2023/02/14 13:01:45;;;;;;;35.13;21.10;;;;;;;;;;4914646;29;20499;-77
2023/02/14 13:04:48;;;;;;;37.40;20.83;;;;;;;;;;4912002;29;20503;-78
2023/02/14 13:07:19;;;;;;;38.65;20.50;;;;;;;;;;4899917;29;20065;-77
2023/02/14 13:09:46;;;;;;;38.67;21.55;;;;;;;;;;4915451;29;20028;-77
2023/02/14 13:12:37;;;;;;;32.80;20.13;;;;;;;;;;4914442;29;20028;-77
2023/02/14 13:15:28;;;;;;;36.90;20.40;;;;;;;;;;4910385;29;20032;-77
2023/02/14 13:18:27;;;;;;;34.45;19.23;;;;;;;;;;4914719;29;20048;-76
2023/02/14 13:20:55;;;;;;;34.55;19.83;;;;;;;;;;4911662;29;20040;-76
2023/02/14 13:23:21;;;;;;;36.55;21.73;;;;;;;;;;4910373;29;20036;-76
2023/02/14 13:25:55;;;;;;;35.25;21.88;;;;;;;;;;4916496;29;20391;-76
2023/02/14 13:28:21;;;;;;;34.10;21.13;;;;;;;;;;4914526;29;20024;-77
2023/02/14 13:30:48;;;;;;;35.25;20.80;;;;;;;;;;4916729;29;20024;-77
2023/02/14 13:33:23;;;;;;;38.50;21.70;;;;;;;;;;4919269;29;20124;-77
2023/02/14 13:35:51;;;;;;;34.28;21.50;;;;;;;;;;4913379;29;20050;-77
2023/02/14 13:38:20;;;;;;;32.72;20.60;;;;;;;;;;4912449;29;20032;-77
2023/02/14 13:40:46;;;;;;;33.60;20.77;;;;;;;;;;4913215;29;20034;-77
2023/02/14 13:43:12;;;;;;;34.10;21.13;;;;;;;;;;4912219;29;20032;-77
2023/02/14 13:45:40;;;;;;;31.80;20.63;;;;;;;;;;4910761;29;20032;-77
2023/02/14 13:48:19;;;;;;;32.63;20.13;;;;;;;;;;4910546;29;20119;-77
2023/02/14 13:51:00;;;;;;;35.90;20.63;;;;;;;;;;4912074;29;20028;-77
2023/02/14 13:53:46;;;;;;;32.22;19.85;;;;;;;;;;4911979;29;20031;-77
2023/02/14 13:56:12;;;;;;;41.25;21.05;;;;;;;;;;4913161;29;20112;-77
2023/02/14 13:58:53;;;;;;;32.35;20.05;;;;;;;;;;4907942;29;20035;-77
2023/02/14 14:01:41;;;;;;;33.92;19.55;;;;;;;;;;4912112;29;20032;-77
2023/02/14 14:04:27;;;;;;;32.20;19.58;;;;;;;;;;4912095;29;20039;-77
2023/02/14 14:06:59;;;;;;;29.88;18.83;;;;;;;;;;4912872;29;20040;-77
2023/02/14 14:10:00;;;;;;;34.47;18.88;;;;;;;;;;4912170;29;20024;-76
2023/02/14 14:12:25;;;;;;;39.80;20.10;;;;;;;;;;4891896;29;20048;-77
2023/02/14 14:15:03;;;;;;;32.92;20.10;;;;;;;;;;4913321;29;20030;-76
2023/02/14 14:17:30;;;;;;;28.85;18.88;;;;;;;;;;4914844;29;20626;-76
2023/02/14 14:20:01;;;;;;;34.08;18.52;;;;;;;;;;4913402;29;20024;-77
2023/02/14 14:22:27;;;;;;;42.03;20.02;;;;;;;;;;4912913;29;20063;-77
2023/02/14 14:24:58;;;;;;;37.35;18.90;;;;;;;;;;4914131;29;20559;-76
2023/02/14 14:27:45;;;;;;;30.88;18.65;;;;;;;;;;4915015;29;20060;-78
2023/02/14 14:32:51;;;;;;;31.25;17.95;;;;;;;;;;5103806;27;20455;-58
2023/02/14 14:35:18;;;;;;;28.02;17.77;;;;;;;;;;5089216;28;20032;-59
2023/02/14 14:37:51;;;;;;;31.70;17.42;;;;;;;;;;5085036;28;20052;-59
2023/02/14 14:40:32;;;;;;;29.42;16.45;;;;;;;;;;5080727;28;20021;-57
2023/02/14 14:43:24;;;;;;;31.77;17.52;;;;;;;;;;5084785;28;20465;-57
2023/02/14 14:45:51;;;;;;;28.38;17.58;;;;;;;;;;5084126;28;20036;-57
2023/02/14 14:48:34;;;;;;;25.67;16.70;;;;;;;;;;5083498;28;20036;-58
2023/02/14 14:51:00;;;;;;;35.47;17.25;;;;;;;;;;5081009;28;20025;-58
2023/02/14 14:53:43;;;;;;;32.53;18.00;;;;;;;;;;5084018;28;20028;-58
2023/02/14 14:56:25;;;;;;;27.58;16.65;;;;;;;;;;5081253;28;20050;-59
2023/02/14 14:58:51;;;;;;;32.17;19.58;;;;;;;;;;5081978;28;20123;-58
2023/02/14 15:01:47;;;;;;;33.42;16.77;;;;;;;;;;5083500;28;20127;-58
2023/02/14 15:04:27;;;;;;;25.85;16.15;;;;;;;;;;5070463;28;20389;-58